Time,TemperatureF,DewpointF,PressureIn,WindDirection,WindDirectionDegrees,WindSpeedMPH,WindSpeedGustMPH,Humidity,HourlyPrecipIn,Conditions,Clouds,dailyrainin,SoftwareType,DateUTC
2013-03-10 00:00:00,29.1,26.0,30.28,SE,134,0.0,0.0,88,0.00,,---,0.00,VWS V13.01,2013-03-10 05:00:00,
2013-03-10 00:01:00,29.1,26.0,30.29,SE,134,0.0,0.0,88,0.00,,---,0.00,VWS V13.01,2013-03-10 05:01:00,
2013-03-10 00:06:00,28.9,26.1,30.28,SE,134,0.0,0.0,89,0.00,,---,0.00,VWS V13.01,2013-03-10 05:06:00,
2013-03-10 00:11:00,28.6,25.5,30.28,SE,134,0.0,0.0,88,0.00,,---,0.00,VWS V13.01,2013-03-10 05:11:00,
2013-03-10 00:16:00,28.1,25.0,30.27,SE,134,0.0,0.0,88,0.00,,---,0.00,VWS V13.01,2013-03-10 05:16:00,
2013-03-10 00:21:00,28.0,25.2,30.27,SE,134,0.0,0.0,89,0.00,,---,0.00,VWS V13.01,2013-03-10 05:21:00,
2013-03-10 00:26:00,28.0,25.2,30.27,SE,134,0.0,0.0,89,0.00,,---,0.00,VWS V13.01,2013-03-10 05:26:00,
2013-03-10 00:31:00,27.8,25.0,30.27,SE,134,0.0,0.0,89,0.00,,---,0.00,VWS V13.01,2013-03-10 05:31:00,
2013-03-10 00:36:00,27.9,25.4,30.27,SE,134,0.0,0.0,90,0.00,,---,0.00,VWS V13.01,2013-03-10 05:36:00,
2013-03-10 00:41:00,28.0,25.5,30.28,SE,134,0.0,0.0,90,0.00,,---,0.00,VWS V13.01,2013-03-10 05:41:00,
2013-03-10 00:47:00,28.3,25.8,30.27,SE,134,0.0,0.0,90,0.00,,---,0.00,VWS V13.01,2013-03-10 05:47:00,
2013-03-10 00:52:00,28.2,25.6,30.27,SE,134,0.0,0.0,90,0.00,,---,0.00,VWS V13.01,2013-03-10 05:52:00,
2013-03-10 00:57:00,28.1,25.5,30.27,SE,134,0.0,0.0,90,0.00,,---,0.00,VWS V13.01,2013-03-10 05:57:00,
2013-03-10 01:02:00,28.1,25.5,30.27,SE,134,0.0,0.0,90,0.00,,---,0.00,VWS V13.01,2013-03-10 06:02:00,
2013-03-10 01:07:00,28.1,25.5,30.27,SE,134,0.0,0.0,90,0.00,,---,0.00,VWS V13.01,2013-03-10 06:07:00,
2013-03-10 01:12:00,28.2,25.6,30.27,SE,134,0.0,0.0,90,0.00,,---,0.00,VWS V13.01,2013-03-10 06:12:00,
2013-03-10 01:17:00,28.2,25.6,30.28,SE,134,0.0,1.0,90,0.00,,---,0.00,VWS V13.01,2013-03-10 06:17:00,
2013-03-10 01:22:00,28.4,25.9,30.28,SE,134,0.0,1.0,90,0.00,,---,0.00,VWS V13.01,2013-03-10 06:22:00,
2013-03-10 01:27:00,28.3,25.8,30.28,SE,134,0.0,1.0,90,0.00,,---,0.00,VWS V13.01,2013-03-10 06:27:00,
2013-03-10 01:32:00,28.3,25.8,30.28,SE,134,0.0,0.0,90,0.00,,---,0.00,VWS V13.01,2013-03-10 06:32:00,
2013-03-10 01:37:00,28.3,25.8,30.28,SE,134,0.0,0.0,90,0.00,,---,0.00,VWS V13.01,2013-03-10 06:37:00,
2013-03-10 01:42:00,28.4,25.9,30.27,SE,134,0.0,0.0,90,0.00,,---,0.00,VWS V13.01,2013-03-10 06:42:00,
2013-03-10 01:47:00,28.5,26.0,30.27,SE,134,0.0,0.0,90,0.00,,---,0.00,VWS V13.01,2013-03-10 06:47:00,
2013-03-10 01:52:00,28.6,26.0,30.27,SE,134,0.0,0.0,90,0.00,,---,0.00,VWS V13.01,2013-03-10 06:52:00,
2013-03-10 01:57:00,28.7,26.4,30.27,SE,134,0.0,0.0,91,0.00,,---,0.00,VWS V13.01,2013-03-10 06:57:00,
2013-03-10 03:03:00,28.8,26.5,30.27,SE,134,0.0,0.0,91,0.00,,---,0.00,VWS V13.01,2013-03-10 07:03:00,
2013-03-10 03:08:00,28.9,26.6,30.27,SE,134,0.0,1.0,91,0.00,,---,0.00,VWS V13.01,2013-03-10 07:08:00,
2013-03-10 03:13:00,29.2,26.9,30.26,SE,134,0.0,1.0,91,0.00,,---,0.00,VWS V13.01,2013-03-10 07:13:00,
2013-03-10 03:18:00,29.3,27.0,30.26,SE,134,0.0,1.0,91,0.00,,---,0.00,VWS V13.01,2013-03-10 07:18:00,
2013-03-10 03:23:00,29.4,27.1,30.25,SE,134,0.0,1.0,91,0.00,,---,0.00,VWS V13.01,2013-03-10 07:23:00,
2013-03-10 03:28:00,29.5,27.2,30.25,SE,134,0.0,1.0,91,0.00,,---,0.00,VWS V13.01,2013-03-10 07:28:00,
2013-03-10 03:33:00,29.7,27.4,30.25,SE,134,0.0,0.0,91,0.00,,---,0.00,VWS V13.01,2013-03-10 07:33:00,
2013-03-10 03:38:00,29.8,27.5,30.24,SE,134,0.0,0.0,91,0.00,,---,0.00,VWS V13.01,2013-03-10 07:38:00,
2013-03-10 03:43:00,30.0,27.7,30.23,SE,134,0.0,1.0,91,0.00,,---,0.00,VWS V13.01,2013-03-10 07:43:00,
2013-03-10 03:48:00,30.5,28.2,30.22,SE,132,0.0,5.0,91,0.00,,---,0.00,VWS V13.01,2013-03-10 07:48:00,
2013-03-10 03:53:00,30.7,28.4,30.23,SE,132,0.0,5.0,91,0.00,,---,0.00,VWS V13.01,2013-03-10 07:53:00,
2013-03-10 03:58:00,30.7,28.4,30.22,SE,132,0.0,5.0,91,0.00,,---,0.00,VWS V13.01,2013-03-10 07:58:00,
2013-03-10 04:03:00,30.9,28.3,30.21,SE,132,0.0,0.0,90,0.00,,---,0.00,VWS V13.01,2013-03-10 08:03:00,
2013-03-10 04:08:00,31.1,28.5,30.22,SE,132,0.0,1.0,90,0.00,,---,0.00,VWS V13.01,2013-03-10 08:08:00,
2013-03-10 04:13:00,31.3,28.7,30.21,SE,132,0.0,1.0,90,0.00,,---,0.00,VWS V13.01,2013-03-10 08:13:00,
2013-03-10 04:18:00,31.5,28.9,30.21,SE,132,0.0,1.0,90,0.00,,---,0.00,VWS V13.01,2013-03-10 08:18:00,
2013-03-10 04:24:00,31.6,28.7,30.21,SE,132,0.0,1.0,89,0.00,,---,0.00,VWS V13.01,2013-03-10 08:24:00,
2013-03-10 04:29:00,32.1,29.2,30.23,West,271,6.0,7.0,89,0.00,,---,0.00,VWS V13.01,2013-03-10 08:29:00,
2013-03-10 04:34:00,32.1,29.2,30.24,West,273,5.0,7.0,89,0.00,,---,0.00,VWS V13.01,2013-03-10 08:34:00,
2013-03-10 04:39:00,32.3,29.1,30.23,West,273,0.0,7.0,88,0.00,,---,0.00,VWS V13.01,2013-03-10 08:39:00,
2013-03-10 04:44:00,32.4,29.0,30.22,West,273,0.0,7.0,87,0.00,,---,0.00,VWS V13.01,2013-03-10 08:44:00,
2013-03-10 04:49:00,32.4,29.2,30.21,West,272,5.0,7.0,88,0.00,,---,0.00,VWS V13.01,2013-03-10 08:49:00,
2013-03-10 04:54:00,32.4,29.2,30.21,ENE,69,0.0,7.0,88,0.00,,---,0.00,VWS V13.01,2013-03-10 08:54:00,
2013-03-10 04:59:00,32.5,29.1,30.21,ENE,69,0.0,7.0,87,0.00,,---,0.00,VWS V13.01,2013-03-10 08:59:00,
2013-03-10 05:04:00,32.7,29.0,30.21,ENE,69,0.0,1.0,86,0.00,,---,0.00,VWS V13.01,2013-03-10 09:04:00,
2013-03-10 05:09:00,32.9,29.2,30.20,ENE,68,0.0,1.0,86,0.00,,---,0.00,VWS V13.01,2013-03-10 09:09:00,
2013-03-10 05:14:00,33.1,29.4,30.21,ENE,68,0.0,1.0,86,0.00,,---,0.00,VWS V13.01,2013-03-10 09:14:00,
2013-03-10 05:19:00,33.1,29.4,30.22,NE,53,0.0,5.0,86,0.00,,---,0.00,VWS V13.01,2013-03-10 09:19:00,
2013-03-10 05:24:00,33.1,29.1,30.21,NE,53,0.0,5.0,85,0.00,,---,0.00,VWS V13.01,2013-03-10 09:24:00,
2013-03-10 05:29:00,33.3,29.3,30.22,NE,53,0.0,5.0,85,0.00,,---,0.00,VWS V13.01,2013-03-10 09:29:00,
2013-03-10 05:35:00,33.4,29.4,30.22,NE,53,0.0,0.0,85,0.00,,---,0.00,VWS V13.01,2013-03-10 09:35:00,
2013-03-10 05:40:00,33.3,29.3,30.21,NE,53,0.0,0.0,85,0.00,,---,0.00,VWS V13.01,2013-03-10 09:40:00,
2013-03-10 05:45:00,33.2,29.2,30.21,NE,53,0.0,0.0,85,0.00,,---,0.00,VWS V13.01,2013-03-10 09:45:00,
2013-03-10 05:50:00,33.2,29.5,30.21,NE,53,0.0,0.0,86,0.00,,---,0.00,VWS V13.01,2013-03-10 09:50:00,
2013-03-10 05:55:00,33.1,29.4,30.21,NE,53,0.0,1.0,86,0.00,,---,0.00,VWS V13.01,2013-03-10 09:55:00,
2013-03-10 06:00:00,33.0,29.0,30.20,NE,53,0.0,1.0,85,0.00,,---,0.00,VWS V13.01,2013-03-10 10:00:00,
2013-03-10 06:05:00,33.2,28.9,30.20,NE,53,0.0,1.0,84,0.00,,---,0.00,VWS V13.01,2013-03-10 10:05:00,
2013-03-10 06:10:00,32.9,28.9,30.20,NE,53,0.0,1.0,85,0.00,,---,0.00,VWS V13.01,2013-03-10 10:10:00,
2013-03-10 06:15:00,32.8,28.8,30.20,NE,53,0.0,1.0,85,0.00,,---,0.00,VWS V13.01,2013-03-10 10:15:00,
2013-03-10 06:20:00,32.8,28.8,30.20,NE,53,0.0,1.0,85,0.00,,---,0.00,VWS V13.01,2013-03-10 10:20:00,
2013-03-10 06:25:00,32.8,28.5,30.20,NE,53,0.0,1.0,84,0.00,,---,0.00,VWS V13.01,2013-03-10 10:25:00,
2013-03-10 06:30:00,32.8,27.9,30.20,NE,53,0.0,0.0,82,0.00,,---,0.00,VWS V13.01,2013-03-10 10:30:00,
2013-03-10 06:35:00,32.6,28.3,30.20,NE,53,0.0,0.0,84,0.00,,---,0.00,VWS V13.01,2013-03-10 10:35:00,
2013-03-10 06:40:00,32.3,28.3,30.20,NE,53,0.0,0.0,85,0.00,,---,0.00,VWS V13.01,2013-03-10 10:40:00,
2013-03-10 06:45:00,32.0,28.0,30.19,NE,53,0.0,1.0,85,0.00,,---,0.00,VWS V13.01,2013-03-10 10:45:00,
2013-03-10 06:51:00,31.9,27.6,30.19,NE,53,0.0,1.0,84,0.00,,---,0.00,VWS V13.01,2013-03-10 10:51:00,
2013-03-10 06:56:00,31.9,27.6,30.19,NE,53,0.0,1.0,84,0.00,,---,0.00,VWS V13.01,2013-03-10 10:56:00,
2013-03-10 07:01:00,31.6,27.3,30.19,NE,53,0.0,0.0,84,0.00,,---,0.00,VWS V13.01,2013-03-10 11:01:00,
2013-03-10 07:06:00,31.2,27.2,30.20,NE,53,0.0,0.0,85,0.00,,---,0.00,VWS V13.01,2013-03-10 11:06:00,
2013-03-10 07:11:00,30.8,27.1,30.19,NE,53,0.0,0.0,86,0.00,,---,0.00,VWS V13.01,2013-03-10 11:11:00,
2013-03-10 07:16:00,30.4,27.3,30.20,NE,53,0.0,0.0,88,0.00,,---,0.00,VWS V13.01,2013-03-10 11:16:00,
2013-03-10 07:21:00,30.3,27.2,30.20,NE,53,0.0,1.0,88,0.00,,---,0.00,VWS V13.01,2013-03-10 11:21:00,
2013-03-10 07:26:00,30.4,27.3,30.20,NE,53,0.0,1.0,88,0.00,,---,0.00,VWS V13.01,2013-03-10 11:26:00,
2013-03-10 07:31:00,30.4,27.3,30.20,NE,53,0.0,0.0,88,0.00,,---,0.00,VWS V13.01,2013-03-10 11:31:00,
2013-03-10 07:36:00,30.4,27.3,30.20,NE,53,0.0,0.0,88,0.00,,---,0.00,VWS V13.01,2013-03-10 11:36:00,
2013-03-10 07:41:00,30.4,27.5,30.20,NE,53,0.0,0.0,89,0.00,,---,0.00,VWS V13.01,2013-03-10 11:41:00,
2013-03-10 07:46:00,30.4,27.5,30.21,NE,53,0.0,0.0,89,0.00,,---,0.00,VWS V13.01,2013-03-10 11:46:00,
2013-03-10 07:51:00,30.5,27.9,30.21,NE,53,0.0,1.0,90,0.00,,---,0.00,VWS V13.01,2013-03-10 11:51:00,
2013-03-10 07:57:00,30.7,28.1,30.20,NE,53,0.0,1.0,90,0.00,,---,0.00,VWS V13.01,2013-03-10 11:57:00,
2013-03-10 08:02:00,31.2,28.3,30.20,NE,53,0.0,0.0,89,0.00,,---,0.00,VWS V13.01,2013-03-10 12:02:00,
2013-03-10 08:07:00,31.6,28.5,30.20,NE,53,0.0,0.0,88,0.00,,---,0.00,VWS V13.01,2013-03-10 12:07:00,
2013-03-10 08:12:00,31.7,28.6,30.20,NE,53,0.0,0.0,88,0.00,,---,0.00,VWS V13.01,2013-03-10 12:12:00,
2013-03-10 08:17:00,31.7,28.6,30.20,NE,53,0.0,0.0,88,0.00,,---,0.00,VWS V13.01,2013-03-10 12:17:00,
2013-03-10 08:22:00,32.0,28.6,30.20,NE,53,0.0,0.0,87,0.00,,---,0.00,VWS V13.01,2013-03-10 12:22:00,
2013-03-10 08:27:00,32.4,28.7,30.20,NE,53,0.0,0.0,86,0.00,,---,0.00,VWS V13.01,2013-03-10 12:27:00,
2013-03-10 08:32:00,32.4,29.0,30.20,NE,53,0.0,0.0,87,0.00,,---,0.00,VWS V13.01,2013-03-10 12:32:00,
2013-03-10 08:37:00,32.3,29.1,30.20,NE,53,0.0,0.0,88,0.00,,---,0.00,VWS V13.01,2013-03-10 12:37:00,
2013-03-10 08:42:00,32.3,29.1,30.21,NE,53,0.0,0.0,88,0.00,,---,0.00,VWS V13.01,2013-03-10 12:42:00,
2013-03-10 08:47:00,32.5,29.1,30.20,NE,53,0.0,1.0,87,0.00,,---,0.00,VWS V13.01,2013-03-10 12:47:00,
2013-03-10 08:52:00,33.2,31.1,30.20,NE,53,0.0,1.0,92,0.00,,---,0.00,VWS V13.01,2013-03-10 12:52:00,
2013-03-10 08:57:00,33.7,30.0,30.20,NE,53,0.0,1.0,86,0.00,,---,0.00,VWS V13.01,2013-03-10 12:57:00,
2013-03-10 09:02:00,33.8,30.1,30.20,NE,53,0.0,0.0,86,0.00,,---,0.00,VWS V13.01,2013-03-10 13:02:00,
2013-03-10 09:08:00,33.7,30.0,30.20,NE,53,1.0,2.0,86,0.00,,---,0.00,VWS V13.01,2013-03-10 13:08:00,
2013-03-10 09:13:00,33.7,30.0,30.20,NE,53,0.0,2.0,86,0.00,,---,0.00,VWS V13.01,2013-03-10 13:13:00,
2013-03-10 09:18:00,34.0,30.3,30.20,NE,53,0.0,2.0,86,0.00,,---,0.00,VWS V13.01,2013-03-10 13:18:00,
2013-03-10 09:23:00,34.4,30.4,30.20,NE,53,0.0,2.0,85,0.00,,---,0.00,VWS V13.01,2013-03-10 13:23:00,
2013-03-10 09:28:00,35.1,29.9,30.20,NE,53,0.0,2.0,81,0.00,,---,0.00,VWS V13.01,2013-03-10 13:28:00,
2013-03-10 09:33:00,35.7,30.1,30.19,NE,53,0.0,0.0,80,0.00,,---,0.00,VWS V13.01,2013-03-10 13:33:00,
2013-03-10 09:38:00,36.1,31.1,30.19,NE,53,0.0,0.0,82,0.00,,---,0.00,VWS V13.01,2013-03-10 13:38:00,
2013-03-10 09:43:00,36.9,31.6,30.19,NE,53,0.0,0.0,81,0.00,,---,0.00,VWS V13.01,2013-03-10 13:43:00,
2013-03-10 09:48:00,38.0,31.8,30.19,NE,53,0.0,1.0,78,0.00,,---,0.00,VWS V13.01,2013-03-10 13:48:00,
2013-03-10 09:53:00,38.6,32.3,30.19,NE,53,0.0,1.0,78,0.00,,---,0.00,VWS V13.01,2013-03-10 13:53:00,
2013-03-10 09:58:00,38.9,32.6,30.19,NE,53,0.0,1.0,78,0.00,,---,0.00,VWS V13.01,2013-03-10 13:58:00,
2013-03-10 10:03:00,39.0,31.4,30.19,NE,53,0.0,1.0,74,0.00,,---,0.00,VWS V13.01,2013-03-10 14:03:00,
2013-03-10 10:08:00,39.3,31.7,30.19,NE,53,0.0,1.0,74,0.00,,---,0.00,VWS V13.01,2013-03-10 14:08:00,
2013-03-10 10:13:00,39.4,31.8,30.19,NE,53,0.0,1.0,74,0.00,,---,0.00,VWS V13.01,2013-03-10 14:13:00,
2013-03-10 10:18:00,39.7,31.8,30.19,NE,53,0.0,1.0,73,0.00,,---,0.00,VWS V13.01,2013-03-10 14:18:00,
2013-03-10 10:24:00,40.4,33.1,30.19,NE,53,0.0,1.0,75,0.00,,---,0.00,VWS V13.01,2013-03-10 14:24:00,
2013-03-10 10:29:00,41.3,33.7,30.19,NE,53,0.0,1.0,74,0.00,,---,0.00,VWS V13.01,2013-03-10 14:29:00,
2013-03-10 10:34:00,41.9,32.5,30.18,NE,53,0.0,1.0,69,0.00,,---,0.00,VWS V13.01,2013-03-10 14:34:00,
2013-03-10 10:39:00,42.6,32.4,30.18,NE,53,0.0,4.0,67,0.00,,---,0.00,VWS V13.01,2013-03-10 14:39:00,
2013-03-10 10:44:00,43.5,31.8,30.18,NE,53,0.0,4.0,63,0.00,,---,0.00,VWS V13.01,2013-03-10 14:44:00,
2013-03-10 10:49:00,43.9,33.7,30.18,NE,53,0.0,4.0,67,0.00,,---,0.00,VWS V13.01,2013-03-10 14:49:00,
2013-03-10 10:54:00,44.9,29.3,30.18,NE,55,0.0,4.0,54,0.00,,---,0.00,VWS V13.01,2013-03-10 14:54:00,
2013-03-10 10:59:00,46.1,29.5,30.17,NE,55,0.0,4.0,52,0.00,,---,0.00,VWS V13.01,2013-03-10 14:59:00,
2013-03-10 11:04:00,47.5,31.7,30.17,NE,52,0.0,2.0,54,0.00,,---,0.00,VWS V13.01,2013-03-10 15:04:00,
2013-03-10 11:09:00,48.3,28.5,30.17,NE,52,0.0,4.0,46,0.00,,---,0.00,VWS V13.01,2013-03-10 15:09:00,
2013-03-10 11:14:00,48.9,30.1,30.17,NE,51,0.0,4.0,48,0.00,,---,0.00,VWS V13.01,2013-03-10 15:14:00,
2013-03-10 11:19:00,48.8,31.5,30.16,NE,55,0.0,4.0,51,0.00,,---,0.00,VWS V13.01,2013-03-10 15:19:00,
2013-03-10 11:24:00,46.6,29.9,30.16,NE,55,0.0,4.0,52,0.00,,---,0.00,VWS V13.01,2013-03-10 15:24:00,
2013-03-10 11:29:00,46.9,30.7,30.17,NE,49,0.0,5.0,53,0.00,,---,0.00,VWS V13.01,2013-03-10 15:29:00,
2013-03-10 11:35:00,46.4,31.6,30.16,NE,49,0.0,0.0,56,0.00,,---,0.00,VWS V13.01,2013-03-10 15:35:00,
2013-03-10 11:40:00,46.9,28.8,30.17,NE,49,0.0,5.0,49,0.00,,---,0.00,VWS V13.01,2013-03-10 15:40:00,
2013-03-10 11:45:00,48.5,29.2,30.16,NNW,346,0.0,6.0,47,0.00,,---,0.00,VWS V13.01,2013-03-10 15:45:00,
2013-03-10 11:50:00,49.4,30.0,30.16,North,350,1.0,8.0,47,0.00,,---,0.00,VWS V13.01,2013-03-10 15:50:00,
2013-03-10 11:55:00,50.4,28.8,30.16,West,274,0.0,8.0,43,0.00,,---,0.00,VWS V13.01,2013-03-10 15:55:00,
2013-03-10 12:00:00,51.2,30.0,30.16,WNW,300,5.0,8.0,44,0.00,,---,0.00,VWS V13.01,2013-03-10 16:00:00,
2013-03-10 12:05:00,51.9,31.8,30.16,WNW,289,0.0,8.0,46,0.00,,---,0.00,VWS V13.01,2013-03-10 16:05:00,
2013-03-10 12:10:00,52.3,31.0,30.16,WNW,294,0.0,8.0,44,0.00,,---,0.00,VWS V13.01,2013-03-10 16:10:00,
2013-03-10 12:15:00,52.7,30.9,30.16,WNW,298,3.0,8.0,43,0.00,,---,0.00,VWS V13.01,2013-03-10 16:15:00,
2013-03-10 12:20:00,53.2,30.1,30.15,ESE,115,0.0,8.0,41,0.00,,---,0.00,VWS V13.01,2013-03-10 16:20:00,
2013-03-10 12:26:00,53.9,30.8,30.15,SW,225,12.0,12.0,41,0.00,,---,0.00,VWS V13.01,2013-03-10 16:26:00,
2013-03-10 12:31:00,54.7,30.2,30.14,WSW,248,0.0,5.0,39,0.00,,---,0.00,VWS V13.01,2013-03-10 16:31:00,
2013-03-10 12:36:00,55.3,31.4,30.14,WSW,244,0.0,5.0,40,0.00,,---,0.00,VWS V13.01,2013-03-10 16:36:00,
2013-03-10 12:41:00,55.5,31.6,30.14,WSW,253,2.0,6.0,40,0.00,,---,0.00,VWS V13.01,2013-03-10 16:41:00,
2013-03-10 12:46:00,55.7,31.1,30.14,WNW,294,4.0,7.0,39,0.00,,---,0.00,VWS V13.01,2013-03-10 16:46:00,
2013-03-10 12:51:00,55.9,31.3,30.13,SSW,202,0.0,8.0,39,0.00,,---,0.00,VWS V13.01,2013-03-10 16:51:00,
2013-03-10 12:56:00,56.1,32.7,30.13,West,260,3.0,10.0,41,0.00,,---,0.00,VWS V13.01,2013-03-10 16:56:00,
2013-03-10 13:01:00,56.3,31.7,30.12,SE,136,0.0,1.0,39,0.00,,---,0.00,VWS V13.01,2013-03-10 17:01:00,
2013-03-10 13:06:00,56.7,31.4,30.12,West,263,5.0,10.0,38,0.00,,---,0.00,VWS V13.01,2013-03-10 17:06:00,
2013-03-10 13:11:00,57.1,32.4,30.12,WNW,291,5.0,19.0,39,0.00,,---,0.00,VWS V13.01,2013-03-10 17:11:00,
2013-03-10 13:16:00,57.5,32.8,30.11,WNW,284,0.0,19.0,39,0.00,,---,0.00,VWS V13.01,2013-03-10 17:16:00,
2013-03-10 13:21:00,58.0,32.6,30.10,NNW,332,1.0,19.0,38,0.00,,---,0.00,VWS V13.01,2013-03-10 17:21:00,
2013-03-10 13:26:00,58.3,32.8,30.10,West,267,2.0,19.0,38,0.00,,---,0.00,VWS V13.01,2013-03-10 17:26:00,
2013-03-10 13:31:00,58.7,33.8,30.10,WSW,246,6.0,6.0,39,0.00,,---,0.00,VWS V13.01,2013-03-10 17:31:00,
2013-03-10 13:36:00,59.0,33.5,30.10,South,178,8.0,10.0,38,0.00,,---,0.00,VWS V13.01,2013-03-10 17:36:00,
2013-03-10 13:41:00,59.0,32.8,30.09,NW,306,0.0,13.0,37,0.00,,---,0.00,VWS V13.01,2013-03-10 17:41:00,
2013-03-10 13:46:00,59.7,34.1,30.09,NNW,337,0.0,13.0,38,0.00,,---,0.00,VWS V13.01,2013-03-10 17:46:00,
2013-03-10 13:52:00,60.0,34.3,30.09,WNW,300,1.0,16.0,38,0.00,,---,0.00,VWS V13.01,2013-03-10 17:52:00,
2013-03-10 13:57:00,60.2,33.2,30.08,SW,234,8.0,16.0,36,0.00,,---,0.00,VWS V13.01,2013-03-10 17:57:00,
2013-03-10 14:02:00,60.3,35.3,30.08,NW,315,5.0,6.0,39,0.00,,---,0.00,VWS V13.01,2013-03-10 18:02:00,
2013-03-10 14:08:00,60.6,34.2,30.07,WNW,288,0.0,8.0,37,0.00,,---,0.00,VWS V13.01,2013-03-10 18:08:00,
2013-03-10 14:13:00,61.0,33.9,30.07,NW,317,4.0,8.0,36,0.00,,---,0.00,VWS V13.01,2013-03-10 18:13:00,
2013-03-10 14:18:00,61.1,34.7,30.07,North,350,8.0,11.0,37,0.00,,---,0.00,VWS V13.01,2013-03-10 18:18:00,
2013-03-10 14:23:00,61.1,34.7,30.06,West,261,4.0,12.0,37,0.00,,---,0.00,VWS V13.01,2013-03-10 18:23:00,
2013-03-10 14:28:00,61.5,35.0,30.05,West,262,9.0,12.0,37,0.00,,---,0.00,VWS V13.01,2013-03-10 18:28:00,
2013-03-10 14:33:00,61.9,34.0,30.05,WNW,283,4.0,9.0,35,0.00,,---,0.00,VWS V13.01,2013-03-10 18:33:00,
2013-03-10 14:38:00,61.7,34.5,30.05,South,180,1.0,10.0,36,0.00,,---,0.00,VWS V13.01,2013-03-10 18:38:00,
2013-03-10 14:43:00,61.5,33.6,30.05,SW,229,13.0,16.0,35,0.00,,---,0.00,VWS V13.01,2013-03-10 18:43:00,
2013-03-10 14:48:00,62.0,34.8,30.04,WNW,292,8.0,16.0,36,0.00,,---,0.00,VWS V13.01,2013-03-10 18:48:00,
2013-03-10 14:53:00,61.8,35.3,30.04,WNW,288,5.0,16.0,37,0.00,,---,0.00,VWS V13.01,2013-03-10 18:53:00,
2013-03-10 14:59:00,61.5,36.3,30.04,SW,214,0.0,16.0,39,0.00,,---,0.00,VWS V13.01,2013-03-10 18:59:00,
2013-03-10 15:04:00,62.3,35.7,30.04,West,271,0.0,8.0,37,0.00,,---,0.00,VWS V13.01,2013-03-10 19:04:00,
2013-03-10 15:09:00,63.2,35.1,30.03,West,279,1.0,8.0,35,0.00,,---,0.00,VWS V13.01,2013-03-10 19:09:00,
2013-03-10 15:14:00,63.4,36.7,30.03,WSW,252,4.0,4.0,37,0.00,,---,0.00,VWS V13.01,2013-03-10 19:14:00,
2013-03-10 15:19:00,63.7,35.6,30.03,West,272,5.0,13.0,35,0.00,,---,0.00,VWS V13.01,2013-03-10 19:19:00,
2013-03-10 15:24:00,64.1,36.6,30.02,NW,307,0.0,13.0,36,0.00,,---,0.00,VWS V13.01,2013-03-10 19:24:00,
2013-03-10 15:30:00,64.6,38.4,30.02,South,180,0.0,13.0,38,0.00,,---,0.00,VWS V13.01,2013-03-10 19:30:00,
2013-03-10 15:35:00,64.7,36.4,30.01,WSW,239,5.0,11.0,35,0.00,,---,0.00,VWS V13.01,2013-03-10 19:35:00,
2013-03-10 15:40:00,64.6,36.3,30.00,West,260,5.0,13.0,35,0.00,,---,0.00,VWS V13.01,2013-03-10 19:40:00,
2013-03-10 15:45:00,64.9,35.9,30.00,South,190,0.0,13.0,34,0.00,,---,0.00,VWS V13.01,2013-03-10 19:45:00,
2013-03-10 15:52:00,65.4,37.1,30.00,SSE,163,1.0,13.0,35,0.00,,---,0.00,VWS V13.01,2013-03-10 19:52:00,
2013-03-10 15:58:00,65.6,37.2,30.00,ESE,123,1.0,13.0,35,0.00,,---,0.00,VWS V13.01,2013-03-10 19:58:00,
2013-03-10 16:03:00,65.2,35.4,30.00,SW,226,7.0,13.0,33,0.00,,---,0.00,VWS V13.01,2013-03-10 20:03:00,
2013-03-10 16:09:00,65.2,34.6,30.00,SW,233,0.0,15.0,32,0.00,,---,0.00,VWS V13.01,2013-03-10 20:09:00,
2013-03-10 16:14:00,65.6,37.2,30.00,West,261,2.0,15.0,35,0.00,,---,0.00,VWS V13.01,2013-03-10 20:14:00,
2013-03-10 16:19:00,65.1,36.1,30.00,West,259,0.0,15.0,34,0.00,,---,0.00,VWS V13.01,2013-03-10 20:19:00,
2013-03-10 16:25:00,64.3,34.6,30.00,SW,215,1.0,15.0,33,0.00,,---,0.00,VWS V13.01,2013-03-10 20:25:00,
2013-03-10 16:30:00,63.4,33.8,29.99,SSW,209,0.0,15.0,33,0.00,,---,0.00,VWS V13.01,2013-03-10 20:30:00,
2013-03-10 16:35:00,63.3,38.0,29.99,WNW,284,4.0,5.0,39,0.00,,---,0.00,VWS V13.01,2013-03-10 20:35:00,
2013-03-10 16:40:00,62.2,36.3,29.99,ESE,107,0.0,6.0,38,0.00,,---,0.00,VWS V13.01,2013-03-10 20:40:00,
2013-03-10 16:46:00,61.1,36.0,29.99,WSW,256,0.0,6.0,39,0.00,,---,0.00,VWS V13.01,2013-03-10 20:46:00,
2013-03-10 16:51:00,59.2,34.3,29.99,WSW,244,0.0,6.0,39,0.00,,---,0.00,VWS V13.01,2013-03-10 20:51:00,
2013-03-10 16:57:00,57.0,36.4,29.98,WSW,244,0.0,6.0,46,0.00,,---,0.00,VWS V13.01,2013-03-10 20:57:00,
2013-03-10 17:02:00,55.0,37.2,29.98,WSW,244,0.0,1.0,51,0.00,,---,0.00,VWS V13.01,2013-03-10 21:02:00,
2013-03-10 17:07:00,53.1,35.0,29.98,West,265,4.0,6.0,50,0.00,,---,0.00,VWS V13.01,2013-03-10 21:07:00,
2013-03-10 17:12:00,54.6,37.3,29.98,NNE,18,0.0,7.0,52,0.00,,---,0.00,VWS V13.01,2013-03-10 21:12:00,
2013-03-10 17:17:00,54.1,36.9,29.98,NNE,19,1.0,7.0,52,0.00,,---,0.00,VWS V13.01,2013-03-10 21:17:00,
2013-03-10 17:22:00,54.5,37.7,29.98,South,175,0.0,7.0,53,0.00,,---,0.00,VWS V13.01,2013-03-10 21:22:00,
2013-03-10 17:28:00,54.9,37.1,29.98,South,172,0.0,7.0,51,0.00,,---,0.00,VWS V13.01,2013-03-10 21:28:00,
2013-03-10 17:33:00,55.6,35.2,29.98,SE,136,0.0,4.0,46,0.00,,---,0.00,VWS V13.01,2013-03-10 21:33:00,
2013-03-10 17:38:00,58.4,36.0,29.97,East,80,0.0,4.0,43,0.00,,---,0.00,VWS V13.01,2013-03-10 21:38:00,
2013-03-10 17:44:00,57.8,36.6,29.97,East,84,0.0,4.0,45,0.00,,---,0.00,VWS V13.01,2013-03-10 21:44:00,
2013-03-10 17:49:00,56.8,36.3,29.97,NNW,343,4.0,7.0,46,0.00,,---,0.00,VWS V13.01,2013-03-10 21:49:00,
2013-03-10 17:55:00,55.0,35.2,29.98,NW,326,0.0,7.0,47,0.00,,---,0.00,VWS V13.01,2013-03-10 21:55:00,
2013-03-10 18:00:00,54.2,35.5,29.98,North,351,0.0,7.0,49,0.00,,---,0.00,VWS V13.01,2013-03-10 22:00:00,
2013-03-10 18:05:00,54.6,35.3,29.98,NNW,348,0.0,3.0,48,0.00,,---,0.00,VWS V13.01,2013-03-10 22:05:00,
2013-03-10 18:10:00,53.1,34.5,29.98,NNW,346,3.0,4.0,49,0.00,,---,0.00,VWS V13.01,2013-03-10 22:10:00,
2013-03-10 18:15:00,54.5,33.0,29.98,South,170,4.0,11.0,44,0.00,,---,0.00,VWS V13.01,2013-03-10 22:15:00,
2013-03-10 18:20:00,57.3,33.2,29.98,WNW,289,0.0,11.0,40,0.00,,---,0.00,VWS V13.01,2013-03-10 22:20:00,
2013-03-10 18:27:00,56.3,35.8,29.98,WNW,288,0.0,11.0,46,0.00,,---,0.00,VWS V13.01,2013-03-10 22:27:00,
2013-03-10 18:32:00,54.1,34.9,29.99,WSW,249,5.0,6.0,48,0.00,,---,0.00,VWS V13.01,2013-03-10 22:32:00,
2013-03-10 18:37:00,53.4,34.7,29.99,WSW,249,0.0,6.0,49,0.00,,---,0.00,VWS V13.01,2013-03-10 22:37:00,
2013-03-10 18:42:00,52.8,34.7,30.00,WSW,252,0.0,6.0,50,0.00,,---,0.00,VWS V13.01,2013-03-10 22:42:00,
2013-03-10 18:48:00,52.5,32.3,30.01,WSW,252,0.0,6.0,46,0.00,,---,0.00,VWS V13.01,2013-03-10 22:48:00,
2013-03-10 18:53:00,52.1,34.5,30.02,WSW,252,0.0,6.0,51,0.00,,---,0.00,VWS V13.01,2013-03-10 22:53:00,
2013-03-10 18:58:00,50.5,33.5,30.02,WSW,252,0.0,6.0,52,0.00,,---,0.00,VWS V13.01,2013-03-10 22:58:00,
2013-03-10 19:03:00,47.9,33.0,30.02,WSW,252,0.0,1.0,56,0.00,,---,0.00,VWS V13.01,2013-03-10 23:03:00,
2013-03-10 19:09:00,47.0,33.0,30.03,WSW,252,0.0,1.0,58,0.00,,---,0.00,VWS V13.01,2013-03-10 23:09:00,
2013-03-10 19:14:00,46.3,31.5,30.03,WSW,252,0.0,2.0,56,0.00,,---,0.00,VWS V13.01,2013-03-10 23:14:00,
2013-03-10 19:20:00,48.3,31.5,30.03,WSW,244,0.0,6.0,52,0.00,,---,0.00,VWS V13.01,2013-03-10 23:20:00,
2013-03-10 19:25:00,50.2,32.8,30.02,WSW,250,0.0,6.0,51,0.00,,---,0.00,VWS V13.01,2013-03-10 23:25:00,
2013-03-10 19:30:00,50.6,32.2,30.02,SW,231,0.0,6.0,49,0.00,,---,0.00,VWS V13.01,2013-03-10 23:30:00,
2013-03-10 19:35:00,49.1,32.7,30.02,SW,231,0.0,2.0,53,0.00,,---,0.00,VWS V13.01,2013-03-10 23:35:00,
2013-03-10 19:42:00,46.9,32.9,30.02,SW,231,0.0,3.0,58,0.00,,---,0.00,VWS V13.01,2013-03-10 23:42:00,
2013-03-10 19:47:00,46.0,32.9,30.02,SW,235,0.0,6.0,60,0.00,,---,0.00,VWS V13.01,2013-03-10 23:47:00,
2013-03-10 19:52:00,45.5,32.0,30.02,SW,234,0.0,6.0,59,0.00,,---,0.00,VWS V13.01,2013-03-10 23:52:00,
2013-03-10 19:58:00,45.4,32.8,30.02,SW,234,0.0,6.0,61,0.00,,---,0.00,VWS V13.01,2013-03-10 23:58:00,
2013-03-10 20:03:00,44.5,32.7,30.01,SW,234,0.0,1.0,63,0.00,,---,0.00,VWS V13.01,2013-03-11 00:03:00,
2013-03-10 20:08:00,43.6,32.6,30.02,SW,234,0.0,1.0,65,0.00,,---,0.00,VWS V13.01,2013-03-11 00:08:00,
2013-03-10 20:13:00,42.6,32.4,30.02,SW,234,0.0,1.0,67,0.00,,---,0.00,VWS V13.01,2013-03-11 00:13:00,
2013-03-10 20:18:00,42.0,32.6,30.02,SW,234,0.0,1.0,69,0.00,,---,0.00,VWS V13.01,2013-03-11 00:18:00,
2013-03-10 20:24:00,41.1,32.4,30.02,SW,234,0.0,1.0,71,0.00,,---,0.00,VWS V13.01,2013-03-11 00:24:00,
2013-03-10 20:29:00,40.7,32.4,30.02,SW,234,0.0,1.0,72,0.00,,---,0.00,VWS V13.01,2013-03-11 00:29:00,
2013-03-10 20:34:00,41.1,32.1,30.02,SW,234,0.0,0.0,70,0.00,,---,0.00,VWS V13.01,2013-03-11 00:34:00,
2013-03-10 20:39:00,41.5,32.1,30.02,SW,234,0.0,0.0,69,0.00,,---,0.00,VWS V13.01,2013-03-11 00:39:00,
2013-03-10 20:44:00,41.8,32.8,30.03,SW,234,0.0,0.0,70,0.00,,---,0.00,VWS V13.01,2013-03-11 00:44:00,
2013-03-10 20:50:00,41.9,32.5,30.04,SW,234,0.0,0.0,69,0.00,,---,0.00,VWS V13.01,2013-03-11 00:50:00,
2013-03-10 20:55:00,42.1,33.0,30.04,SW,234,0.0,1.0,70,0.00,,---,0.00,VWS V13.01,2013-03-11 00:55:00,
2013-03-10 21:00:00,42.1,33.4,30.04,SW,234,0.0,0.0,71,0.00,,---,0.00,VWS V13.01,2013-03-11 01:00:00,
2013-03-10 21:05:00,42.2,33.1,30.04,SW,234,0.0,1.0,70,0.00,,---,0.00,VWS V13.01,2013-03-11 01:05:00,
2013-03-10 21:11:00,42.5,32.7,30.03,SW,234,0.0,1.0,68,0.00,,---,0.00,VWS V13.01,2013-03-11 01:11:00,
2013-03-10 21:17:00,45.5,33.2,30.01,ENE,75,7.0,16.0,62,0.00,,---,0.00,VWS V13.01,2013-03-11 01:17:00,
2013-03-10 21:22:00,50.7,33.7,30.02,ENE,59,0.0,16.0,52,0.00,,---,0.00,VWS V13.01,2013-03-11 01:22:00,
2013-03-10 21:27:00,50.0,33.6,30.02,SSW,194,0.0,16.0,53,0.00,,---,0.00,VWS V13.01,2013-03-11 01:27:00,
2013-03-10 21:33:00,48.1,32.7,30.02,SSW,194,0.0,0.0,55,0.00,,---,0.00,VWS V13.01,2013-03-11 01:33:00,
2013-03-10 21:38:00,46.0,32.9,30.01,SSW,193,0.0,0.0,60,0.00,,---,0.00,VWS V13.01,2013-03-11 01:38:00,
2013-03-10 21:43:00,48.7,32.3,30.00,East,84,8.0,14.0,53,0.00,,---,0.00,VWS V13.01,2013-03-11 01:43:00,
2013-03-10 21:48:00,51.4,33.4,30.00,ESE,115,8.0,15.0,50,0.00,,---,0.00,VWS V13.01,2013-03-11 01:48:00,
2013-03-10 21:54:00,49.6,33.2,30.00,ESE,110,7.0,15.0,53,0.00,,---,0.00,VWS V13.01,2013-03-11 01:54:00,
2013-03-10 21:59:00,48.1,32.3,30.00,East,85,0.0,15.0,54,0.00,,---,0.00,VWS V13.01,2013-03-11 01:59:00,
2013-03-10 22:04:00,47.5,31.7,30.00,SE,130,0.0,4.0,54,0.00,,---,0.00,VWS V13.01,2013-03-11 02:04:00,
2013-03-10 22:09:00,47.1,32.2,30.00,SSW,200,0.0,6.0,56,0.00,,---,0.00,VWS V13.01,2013-03-11 02:09:00,
2013-03-10 22:14:00,46.4,32.0,30.00,SSW,199,0.0,6.0,57,0.00,,---,0.00,VWS V13.01,2013-03-11 02:14:00,
2013-03-10 22:19:00,45.4,32.3,30.00,SSW,200,0.0,6.0,60,0.00,,---,0.00,VWS V13.01,2013-03-11 02:19:00,
2013-03-10 22:24:00,43.9,31.7,30.00,SSW,200,0.0,6.0,62,0.00,,---,0.00,VWS V13.01,2013-03-11 02:24:00,
2013-03-10 22:30:00,42.8,31.5,30.01,SSW,200,0.0,6.0,64,0.00,,---,0.00,VWS V13.01,2013-03-11 02:30:00,
2013-03-10 22:35:00,42.2,31.3,30.01,SSW,200,0.0,1.0,65,0.00,,---,0.00,VWS V13.01,2013-03-11 02:35:00,
2013-03-10 22:40:00,41.5,32.1,30.01,SSW,199,0.0,1.0,69,0.00,,---,0.00,VWS V13.01,2013-03-11 02:40:00,
2013-03-10 22:45:00,41.1,32.1,30.01,SSW,199,0.0,1.0,70,0.00,,---,0.00,VWS V13.01,2013-03-11 02:45:00,
2013-03-10 22:50:00,40.8,31.8,30.01,SSW,200,0.0,1.0,70,0.00,,---,0.00,VWS V13.01,2013-03-11 02:50:00,
2013-03-10 22:56:00,40.7,31.7,30.01,SSW,199,0.0,1.0,70,0.00,,---,0.00,VWS V13.01,2013-03-11 02:56:00,
2013-03-10 23:01:00,40.7,32.0,30.01,SSW,199,0.0,0.0,71,0.00,,---,0.00,VWS V13.01,2013-03-11 03:01:00,
2013-03-10 23:06:00,41.1,32.1,29.99,SSW,200,0.0,0.0,70,0.00,,---,0.00,VWS V13.01,2013-03-11 03:06:00,
2013-03-10 23:12:00,41.0,33.7,29.99,SSW,200,0.0,0.0,75,0.00,,---,0.00,VWS V13.01,2013-03-11 03:12:00,
2013-03-10 23:17:00,41.1,32.1,29.98,SSW,200,0.0,1.0,70,0.00,,---,0.00,VWS V13.01,2013-03-11 03:17:00,
2013-03-10 23:22:00,41.0,31.6,29.99,SSW,200,0.0,2.0,69,0.00,,---,0.00,VWS V13.01,2013-03-11 03:22:00,
2013-03-10 23:27:00,42.1,32.0,29.98,SSW,202,0.0,2.0,67,0.00,,---,0.00,VWS V13.01,2013-03-11 03:27:00,
2013-03-10 23:33:00,42.4,32.6,29.98,SSW,202,0.0,1.0,68,0.00,,---,0.00,VWS V13.01,2013-03-11 03:33:00,
2013-03-10 23:38:00,41.9,32.1,29.98,SSW,202,0.0,1.0,68,0.00,,---,0.00,VWS V13.01,2013-03-11 03:38:00,
2013-03-10 23:43:00,41.8,32.4,29.98,SSW,202,0.0,1.0,69,0.00,,---,0.00,VWS V13.01,2013-03-11 03:43:00,
2013-03-10 23:48:00,41.3,31.9,29.98,SSW,202,0.0,1.0,69,0.00,,---,0.00,VWS V13.01,2013-03-11 03:48:00,
2013-03-10 23:53:00,41.5,32.5,29.97,SSW,202,0.0,1.0,70,0.00,,---,0.00,VWS V13.01,2013-03-11 03:53:00,
2013-03-10 23:58:00,41.4,32.4,29.97,SSW,202,0.0,1.0,70,0.00,,---,0.00,VWS V13.01,2013-03-11 03:58:00,